sensor_id;sensor_type;location;lat;lon;timestamp;pressure;altitude;pressure_sealevel;temperature;humidity
61359;BME280;47228;46.762;23.598;2024-02-26T00:00:50;96717.75;;;6.89;72.39
61359;BME280;47228;46.762;23.598;2024-02-26T00:03:38;96721.20;;;6.88;72.62
61359;BME280;47228;46.762;23.598;2024-02-26T00:06:09;96723.06;;;6.90;72.97
61359;BME280;47228;46.762;23.598;2024-02-26T00:08:37;96726.16;;;6.92;73.29
61359;BME280;47228;46.762;23.598;2024-02-26T00:11:06;96727.27;;;6.92;73.22
61359;BME280;47228;46.762;23.598;2024-02-26T00:13:34;96727.17;;;6.89;73.38
61359;BME280;47228;46.762;23.598;2024-02-26T00:16:03;96727.24;;;6.89;73.09
61359;BME280;47228;46.762;23.598;2024-02-26T00:18:31;96729.70;;;6.84;72.57
61359;BME280;47228;46.762;23.598;2024-02-26T00:21:00;96733.76;;;6.76;72.61
61359;BME280;47228;46.762;23.598;2024-02-26T00:23:28;96735.10;;;6.69;72.89
61359;BME280;47228;46.762;23.598;2024-02-26T00:25:57;96730.25;;;6.66;72.97
61359;BME280;47228;46.762;23.598;2024-02-26T00:28:25;96731.34;;;6.60;72.33
61359;BME280;47228;46.762;23.598;2024-02-26T00:30:55;96732.26;;;6.51;72.49
61359;BME280;47228;46.762;23.598;2024-02-26T00:33:24;96734.19;;;6.49;73.24
61359;BME280;47228;46.762;23.598;2024-02-26T00:35:52;96733.94;;;6.48;73.50
61359;BME280;47228;46.762;23.598;2024-02-26T00:38:20;96733.22;;;6.49;73.90
61359;BME280;47228;46.762;23.598;2024-02-26T00:40:48;96734.12;;;6.50;73.84
61359;BME280;47228;46.762;23.598;2024-02-26T00:43:17;96730.91;;;6.51;73.62
61359;BME280;47228;46.762;23.598;2024-02-26T00:45:46;96730.13;;;6.49;73.33
61359;BME280;47228;46.762;23.598;2024-02-26T00:48:15;96727.98;;;6.43;73.05
61359;BME280;47228;46.762;23.598;2024-02-26T00:50:43;96722.72;;;6.39;73.37
61359;BME280;47228;46.762;23.598;2024-02-26T00:53:11;96723.94;;;6.34;73.40
61359;BME280;47228;46.762;23.598;2024-02-26T00:55:40;96726.40;;;6.31;73.41
61359;BME280;47228;46.762;23.598;2024-02-26T00:58:09;96725.39;;;6.26;72.89
61359;BME280;47228;46.762;23.598;2024-02-26T01:00:37;96723.08;;;6.16;72.93
61359;BME280;47228;46.762;23.598;2024-02-26T01:03:05;96718.39;;;6.04;73.30
61359;BME280;47228;46.762;23.598;2024-02-26T01:05:33;96718.86;;;5.95;73.84
61359;BME280;47228;46.762;23.598;2024-02-26T01:08:01;96717.96;;;5.91;74.27
61359;BME280;47228;46.762;23.598;2024-02-26T01:10:30;96714.94;;;5.88;74.51
61359;BME280;47228;46.762;23.598;2024-02-26T01:12:59;96716.98;;;5.86;74.33
61359;BME280;47228;46.762;23.598;2024-02-26T01:15:27;96717.34;;;5.81;74.33
61359;BME280;47228;46.762;23.598;2024-02-26T01:17:56;96716.71;;;5.77;74.58
61359;BME280;47228;46.762;23.598;2024-02-26T01:20:24;96717.62;;;5.75;75.19
61359;BME280;47228;46.762;23.598;2024-02-26T01:22:52;96715.86;;;5.73;75.54
61359;BME280;47228;46.762;23.598;2024-02-26T01:25:20;96714.30;;;5.73;75.63
61359;BME280;47228;46.762;23.598;2024-02-26T01:27:48;96717.23;;;5.74;75.72
61359;BME280;47228;46.762;23.598;2024-02-26T01:30:17;96720.43;;;5.73;75.45
61359;BME280;47228;46.762;23.598;2024-02-26T01:32:45;96719.90;;;5.75;75.67
61359;BME280;47228;46.762;23.598;2024-02-26T01:35:14;96719.16;;;5.75;75.21
61359;BME280;47228;46.762;23.598;2024-02-26T01:37:42;96717.89;;;5.74;75.10
61359;BME280;47228;46.762;23.598;2024-02-26T01:40:10;96718.20;;;5.73;75.24
61359;BME280;47228;46.762;23.598;2024-02-26T01:42:39;96715.42;;;5.70;75.32
61359;BME280;47228;46.762;23.598;2024-02-26T01:45:13;96715.89;;;5.69;75.45
61359;BME280;47228;46.762;23.598;2024-02-26T01:47:43;96718.05;;;5.70;75.20
61359;BME280;47228;46.762;23.598;2024-02-26T01:50:14;96716.98;;;5.67;74.71
61359;BME280;47228;46.762;23.598;2024-02-26T01:52:42;96712.58;;;5.62;74.40
61359;BME280;47228;46.762;23.598;2024-02-26T01:55:11;96707.08;;;5.54;74.44
61359;BME280;47228;46.762;23.598;2024-02-26T01:57:40;96704.21;;;5.52;74.80
61359;BME280;47228;46.762;23.598;2024-02-26T02:00:09;96697.86;;;5.52;75.12
61359;BME280;47228;46.762;23.598;2024-02-26T02:02:38;96697.48;;;5.52;75.12
61359;BME280;47228;46.762;23.598;2024-02-26T02:05:06;96699.06;;;5.52;74.99
61359;BME280;47228;46.762;23.598;2024-02-26T02:07:35;96701.30;;;5.48;74.37
61359;BME280;47228;46.762;23.598;2024-02-26T02:10:05;96695.04;;;5.38;73.89
61359;BME280;47228;46.762;23.598;2024-02-26T02:12:33;96690.94;;;5.29;74.23
61359;BME280;47228;46.762;23.598;2024-02-26T02:15:02;96691.77;;;5.27;74.91
61359;BME280;47228;46.762;23.598;2024-02-26T02:17:31;96694.08;;;5.27;75.08
61359;BME280;47228;46.762;23.598;2024-02-26T02:19:59;96696.38;;;5.26;74.79
61359;BME280;47228;46.762;23.598;2024-02-26T02:22:27;96696.43;;;5.20;74.18
61359;BME280;47228;46.762;23.598;2024-02-26T02:24:56;96694.71;;;5.11;74.37
61359;BME280;47228;46.762;23.598;2024-02-26T02:27:24;96693.63;;;5.02;74.48
61359;BME280;47228;46.762;23.598;2024-02-26T02:29:53;96693.12;;;4.96;74.82
61359;BME280;47228;46.762;23.598;2024-02-26T02:32:21;96694.53;;;4.93;75.18
61359;BME280;47228;46.762;23.598;2024-02-26T02:34:49;96695.63;;;4.90;75.10
61359;BME280;47228;46.762;23.598;2024-02-26T02:37:18;96692.17;;;4.86;75.07
61359;BME280;47228;46.762;23.598;2024-02-26T02:39:46;96694.17;;;4.84;75.49
61359;BME280;47228;46.762;23.598;2024-02-26T02:42:14;96691.96;;;4.85;75.79
61359;BME280;47228;46.762;23.598;2024-02-26T02:44:42;96689.15;;;4.84;75.22
61359;BME280;47228;46.762;23.598;2024-02-26T02:47:10;96691.13;;;4.80;75.41
61359;BME280;47228;46.762;23.598;2024-02-26T02:49:38;96695.92;;;4.79;75.80
61359;BME280;47228;46.762;23.598;2024-02-26T02:52:06;96700.48;;;4.81;76.03
61359;BME280;47228;46.762;23.598;2024-02-26T02:54:35;96700.86;;;4.81;75.89
61359;BME280;47228;46.762;23.598;2024-02-26T02:57:04;96700.55;;;4.79;75.54
61359;BME280;47228;46.762;23.598;2024-02-26T02:59:33;96701.71;;;4.75;75.78
61359;BME280;47228;46.762;23.598;2024-02-26T03:02:01;96706.98;;;4.75;76.35
61359;BME280;47228;46.762;23.598;2024-02-26T03:04:29;96710.67;;;4.76;76.19
61359;BME280;47228;46.762;23.598;2024-02-26T03:06:57;96710.17;;;4.75;76.06
61359;BME280;47228;46.762;23.598;2024-02-26T03:09:26;96710.86;;;4.69;75.95
61359;BME280;47228;46.762;23.598;2024-02-26T03:11:54;96710.73;;;4.66;76.08
61359;BME280;47228;46.762;23.598;2024-02-26T03:14:22;96711.57;;;4.64;76.51
61359;BME280;47228;46.762;23.598;2024-02-26T03:16:54;96710.00;;;4.63;76.24
61359;BME280;47228;46.762;23.598;2024-02-26T03:19:22;96715.81;;;4.61;76.53
61359;BME280;47228;46.762;23.598;2024-02-26T03:21:53;96716.45;;;4.61;76.66
61359;BME280;47228;46.762;23.598;2024-02-26T03:24:21;96719.21;;;4.64;76.85
61359;BME280;47228;46.762;23.598;2024-02-26T03:26:50;96719.37;;;4.67;77.34
61359;BME280;47228;46.762;23.598;2024-02-26T03:29:20;96716.05;;;4.70;77.30
61359;BME280;47228;46.762;23.598;2024-02-26T03:31:48;96716.13;;;4.69;76.99
61359;BME280;47228;46.762;23.598;2024-02-26T03:34:16;96718.41;;;4.67;76.55
61359;BME280;47228;46.762;23.598;2024-02-26T03:36:46;96715.56;;;4.62;76.23
61359;BME280;47228;46.762;23.598;2024-02-26T03:39:15;96714.73;;;4.57;76.37
61359;BME280;47228;46.762;23.598;2024-02-26T03:41:43;96716.81;;;4.54;76.74
61359;BME280;47228;46.762;23.598;2024-02-26T03:44:11;96722.35;;;4.51;76.90
61359;BME280;47228;46.762;23.598;2024-02-26T03:46:39;96722.48;;;4.52;77.11
61359;BME280;47228;46.762;23.598;2024-02-26T03:49:07;96722.69;;;4.47;76.48
61359;BME280;47228;46.762;23.598;2024-02-26T03:51:37;96723.30;;;4.38;76.30
61359;BME280;47228;46.762;23.598;2024-02-26T03:54:05;96722.55;;;4.35;76.76
61359;BME280;47228;46.762;23.598;2024-02-26T03:56:33;96723.04;;;4.32;76.93
61359;BME280;47228;46.762;23.598;2024-02-26T03:59:01;96724.05;;;4.31;77.08
61359;BME280;47228;46.762;23.598;2024-02-26T04:01:30;96723.50;;;4.28;76.67
61359;BME280;47228;46.762;23.598;2024-02-26T04:03:58;96719.20;;;4.24;77.03
61359;BME280;47228;46.762;23.598;2024-02-26T04:06:27;96713.85;;;4.23;77.37
61359;BME280;47228;46.762;23.598;2024-02-26T04:08:55;96711.17;;;4.23;77.35
61359;BME280;47228;46.762;23.598;2024-02-26T04:11:24;96713.54;;;4.24;77.57
61359;BME280;47228;46.762;23.598;2024-02-26T04:13:52;96716.95;;;4.25;77.57
61359;BME280;47228;46.762;23.598;2024-02-26T04:16:20;96718.09;;;4.26;77.69
61359;BME280;47228;46.762;23.598;2024-02-26T04:18:48;96718.91;;;4.26;77.79
61359;BME280;47228;46.762;23.598;2024-02-26T04:21:17;96719.08;;;4.22;77.58
61359;BME280;47228;46.762;23.598;2024-02-26T04:23:45;96719.58;;;4.18;77.97
61359;BME280;47228;46.762;23.598;2024-02-26T04:26:13;96723.33;;;4.14;78.09
61359;BME280;47228;46.762;23.598;2024-02-26T04:28:41;96726.13;;;4.12;78.46
61359;BME280;47228;46.762;23.598;2024-02-26T04:31:10;96722.35;;;4.11;78.30
61359;BME280;47228;46.762;23.598;2024-02-26T04:33:38;96720.61;;;4.06;78.24
61359;BME280;47228;46.762;23.598;2024-02-26T04:36:13;96725.98;;;3.98;78.46
61359;BME280;47228;46.762;23.598;2024-02-26T04:38:42;96732.00;;;3.93;78.70
61359;BME280;47228;46.762;23.598;2024-02-26T04:41:10;96732.91;;;3.89;78.83
61359;BME280;47228;46.762;23.598;2024-02-26T04:43:39;96732.79;;;3.89;79.34
61359;BME280;47228;46.762;23.598;2024-02-26T04:46:09;96734.41;;;3.87;79.40
61359;BME280;47228;46.762;23.598;2024-02-26T04:48:38;96732.43;;;3.84;79.71
61359;BME280;47228;46.762;23.598;2024-02-26T04:51:07;96735.74;;;3.85;79.96
61359;BME280;47228;46.762;23.598;2024-02-26T04:53:35;96736.65;;;3.86;80.00
61359;BME280;47228;46.762;23.598;2024-02-26T04:56:04;96733.88;;;3.89;80.30
61359;BME280;47228;46.762;23.598;2024-02-26T04:58:32;96730.04;;;3.92;80.51
61359;BME280;47228;46.762;23.598;2024-02-26T05:01:00;96730.27;;;3.96;80.86
61359;BME280;47228;46.762;23.598;2024-02-26T05:03:28;96727.30;;;4.02;80.96
61359;BME280;47228;46.762;23.598;2024-02-26T05:05:57;96732.12;;;4.07;80.66
61359;BME280;47228;46.762;23.598;2024-02-26T05:08:26;96739.23;;;4.13;80.38
61359;BME280;47228;46.762;23.598;2024-02-26T05:10:54;96735.33;;;4.16;80.22
61359;BME280;47228;46.762;23.598;2024-02-26T05:13:22;96735.02;;;4.19;80.03
61359;BME280;47228;46.762;23.598;2024-02-26T05:15:50;96734.75;;;4.20;79.71
61359;BME280;47228;46.762;23.598;2024-02-26T05:18:20;96736.70;;;4.21;79.54
61359;BME280;47228;46.762;23.598;2024-02-26T05:20:48;96733.07;;;4.19;79.16
61359;BME280;47228;46.762;23.598;2024-02-26T05:23:16;96731.91;;;4.17;79.07
61359;BME280;47228;46.762;23.598;2024-02-26T05:25:45;96732.41;;;4.16;79.17
61359;BME280;47228;46.762;23.598;2024-02-26T05:28:15;96733.30;;;4.14;79.22
61359;BME280;47228;46.762;23.598;2024-02-26T05:30:44;96737.00;;;4.12;79.08
61359;BME280;47228;46.762;23.598;2024-02-26T05:33:12;96740.89;;;4.12;79.29
61359;BME280;47228;46.762;23.598;2024-02-26T05:35:46;96737.54;;;4.12;78.92
61359;BME280;47228;46.762;23.598;2024-02-26T05:38:14;96742.13;;;4.10;78.61
61359;BME280;47228;46.762;23.598;2024-02-26T05:40:42;96745.85;;;4.07;78.64
61359;BME280;47228;46.762;23.598;2024-02-26T05:43:11;96747.15;;;4.07;78.81
61359;BME280;47228;46.762;23.598;2024-02-26T05:45:39;96744.64;;;4.07;78.95
61359;BME280;47228;46.762;23.598;2024-02-26T05:48:07;96748.52;;;4.07;78.90
61359;BME280;47228;46.762;23.598;2024-02-26T05:50:35;96751.69;;;4.07;78.70
61359;BME280;47228;46.762;23.598;2024-02-26T05:53:04;96750.12;;;4.05;78.39
61359;BME280;47228;46.762;23.598;2024-02-26T05:55:32;96750.88;;;4.05;78.60
61359;BME280;47228;46.762;23.598;2024-02-26T05:58:00;96754.39;;;4.05;78.82
61359;BME280;47228;46.762;23.598;2024-02-26T06:00:28;96755.20;;;4.05;78.52
61359;BME280;47228;46.762;23.598;2024-02-26T06:02:57;96755.04;;;4.05;78.71
61359;BME280;47228;46.762;23.598;2024-02-26T06:05:25;96756.98;;;4.08;79.14
61359;BME280;47228;46.762;23.598;2024-02-26T06:07:54;96759.52;;;4.12;79.16
61359;BME280;47228;46.762;23.598;2024-02-26T06:10:22;96759.32;;;4.15;79.23
61359;BME280;47228;46.762;23.598;2024-02-26T06:12:50;96754.66;;;4.16;79.03
61359;BME280;47228;46.762;23.598;2024-02-26T06:15:18;96750.79;;;4.17;79.12
61359;BME280;47228;46.762;23.598;2024-02-26T06:17:46;96751.13;;;4.20;79.23
61359;BME280;47228;46.762;23.598;2024-02-26T06:20:15;96748.85;;;4.25;79.39
61359;BME280;47228;46.762;23.598;2024-02-26T06:22:43;96752.91;;;4.31;79.62
61359;BME280;47228;46.762;23.598;2024-02-26T06:25:11;96752.83;;;4.38;79.64
61359;BME280;47228;46.762;23.598;2024-02-26T06:27:40;96754.88;;;4.45;79.47
61359;BME280;47228;46.762;23.598;2024-02-26T06:30:09;96761.34;;;4.52;79.55
61359;BME280;47228;46.762;23.598;2024-02-26T06:32:39;96759.76;;;4.59;79.48
61359;BME280;47228;46.762;23.598;2024-02-26T06:35:08;96754.52;;;4.63;79.34
61359;BME280;47228;46.762;23.598;2024-02-26T06:37:37;96752.46;;;4.69;79.38
61359;BME280;47228;46.762;23.598;2024-02-26T06:40:06;96753.48;;;4.75;79.31
61359;BME280;47228;46.762;23.598;2024-02-26T06:42:34;96758.67;;;4.82;79.34
61359;BME280;47228;46.762;23.598;2024-02-26T06:45:04;96753.70;;;4.88;79.18
61359;BME280;47228;46.762;23.598;2024-02-26T06:47:36;96756.80;;;4.96;79.27
61359;BME280;47228;46.762;23.598;2024-02-26T06:50:11;96755.06;;;5.03;79.19
61359;BME280;47228;46.762;23.598;2024-02-26T06:52:44;96758.08;;;5.11;79.14
61359;BME280;47228;46.762;23.598;2024-02-26T06:55:14;96755.96;;;5.17;78.79
61359;BME280;47228;46.762;23.598;2024-02-26T06:57:43;96758.57;;;5.20;78.59
61359;BME280;47228;46.762;23.598;2024-02-26T07:00:11;96760.80;;;5.23;78.34
61359;BME280;47228;46.762;23.598;2024-02-26T07:02:44;96766.08;;;5.28;78.48
61359;BME280;47228;46.762;23.598;2024-02-26T07:05:13;96770.02;;;5.32;78.34
61359;BME280;47228;46.762;23.598;2024-02-26T07:07:41;96772.23;;;5.35;78.19
61359;BME280;47228;46.762;23.598;2024-02-26T07:10:09;96777.01;;;5.38;78.30
61359;BME280;47228;46.762;23.598;2024-02-26T07:12:40;96781.91;;;5.41;78.00
61359;BME280;47228;46.762;23.598;2024-02-26T07:15:09;96786.94;;;5.45;78.08
61359;BME280;47228;46.762;23.598;2024-02-26T07:17:38;96784.59;;;5.49;78.21
61359;BME280;47228;46.762;23.598;2024-02-26T07:20:10;96782.23;;;5.56;78.23
61359;BME280;47228;46.762;23.598;2024-02-26T07:22:39;96774.71;;;5.65;78.10
61359;BME280;47228;46.762;23.598;2024-02-26T07:25:07;96774.12;;;5.74;77.98
61359;BME280;47228;46.762;23.598;2024-02-26T07:27:36;96779.79;;;5.81;77.87
61359;BME280;47228;46.762;23.598;2024-02-26T07:30:05;96781.31;;;5.87;77.71
61359;BME280;47228;46.762;23.598;2024-02-26T07:32:34;96779.56;;;5.92;77.47
61359;BME280;47228;46.762;23.598;2024-02-26T07:35:02;96780.61;;;5.95;77.57
61359;BME280;47228;46.762;23.598;2024-02-26T07:37:31;96776.27;;;5.99;77.49
61359;BME280;47228;46.762;23.598;2024-02-26T07:40:01;96777.87;;;6.00;77.23
61359;BME280;47228;46.762;23.598;2024-02-26T07:42:31;96776.33;;;6.01;77.32
61359;BME280;47228;46.762;23.598;2024-02-26T07:44:59;96772.30;;;6.05;77.55
61359;BME280;47228;46.762;23.598;2024-02-26T07:47:27;96767.85;;;6.10;77.81
61359;BME280;47228;46.762;23.598;2024-02-26T07:49:55;96764.11;;;6.15;78.01
61359;BME280;47228;46.762;23.598;2024-02-26T07:52:24;96768.21;;;6.19;78.32
61359;BME280;47228;46.762;23.598;2024-02-26T07:54:52;96764.94;;;6.25;78.35
61359;BME280;47228;46.762;23.598;2024-02-26T07:57:20;96768.92;;;6.32;78.50
61359;BME280;47228;46.762;23.598;2024-02-26T07:59:49;96762.73;;;6.39;78.74
61359;BME280;47228;46.762;23.598;2024-02-26T08:02:18;96762.20;;;6.48;78.72
61359;BME280;47228;46.762;23.598;2024-02-26T08:04:46;96762.46;;;6.57;78.78
61359;BME280;47228;46.762;23.598;2024-02-26T08:07:14;96764.64;;;6.67;78.68
61359;BME280;47228;46.762;23.598;2024-02-26T08:09:44;96764.95;;;6.77;78.73
61359;BME280;47228;46.762;23.598;2024-02-26T08:12:14;96762.64;;;6.86;78.71
61359;BME280;47228;46.762;23.598;2024-02-26T08:14:42;96762.82;;;6.96;78.26
61359;BME280;47228;46.762;23.598;2024-02-26T08:17:11;96754.67;;;7.04;78.05
61359;BME280;47228;46.762;23.598;2024-02-26T08:19:40;96760.44;;;7.13;77.76
61359;BME280;47228;46.762;23.598;2024-02-26T08:22:08;96755.20;;;7.21;77.55
61359;BME280;47228;46.762;23.598;2024-02-26T08:24:38;96745.17;;;7.28;77.32
61359;BME280;47228;46.762;23.598;2024-02-26T08:27:06;96748.50;;;7.35;76.97
61359;BME280;47228;46.762;23.598;2024-02-26T08:29:34;96745.23;;;7.42;77.00
61359;BME280;47228;46.762;23.598;2024-02-26T08:32:03;96751.92;;;7.50;77.18
61359;BME280;47228;46.762;23.598;2024-02-26T08:34:32;96754.18;;;7.59;77.30
61359;BME280;47228;46.762;23.598;2024-02-26T08:37:00;96751.48;;;7.69;77.16
61359;BME280;47228;46.762;23.598;2024-02-26T08:39:28;96749.15;;;7.79;76.93
61359;BME280;47228;46.762;23.598;2024-02-26T08:41:56;96755.92;;;7.90;76.80
61359;BME280;47228;46.762;23.598;2024-02-26T08:44:24;96754.64;;;8.00;76.44
61359;BME280;47228;46.762;23.598;2024-02-26T08:46:54;96761.84;;;8.10;76.51
61359;BME280;47228;46.762;23.598;2024-02-26T08:49:22;96759.10;;;8.19;76.19
61359;BME280;47228;46.762;23.598;2024-02-26T08:51:52;96757.84;;;8.28;75.94
61359;BME280;47228;46.762;23.598;2024-02-26T08:54:19;96753.59;;;8.40;75.95
61359;BME280;47228;46.762;23.598;2024-02-26T08:56:48;96755.61;;;8.50;75.92
61359;BME280;47228;46.762;23.598;2024-02-26T08:59:16;96755.52;;;8.60;76.01
61359;BME280;47228;46.762;23.598;2024-02-26T09:01:47;96754.38;;;8.70;76.03
61359;BME280;47228;46.762;23.598;2024-02-26T09:04:15;96755.27;;;8.81;75.98
61359;BME280;47228;46.762;23.598;2024-02-26T09:06:44;96754.51;;;8.92;75.95
61359;BME280;47228;46.762;23.598;2024-02-26T09:09:12;96753.48;;;9.05;76.14
61359;BME280;47228;46.762;23.598;2024-02-26T09:11:40;96752.27;;;9.19;76.05
61359;BME280;47228;46.762;23.598;2024-02-26T09:14:09;96751.49;;;9.33;75.84
61359;BME280;47228;46.762;23.598;2024-02-26T09:16:37;96752.09;;;9.45;75.84
61359;BME280;47228;46.762;23.598;2024-02-26T09:19:05;96753.69;;;9.59;75.46
61359;BME280;47228;46.762;23.598;2024-02-26T09:21:33;96754.09;;;9.70;75.38
61359;BME280;47228;46.762;23.598;2024-02-26T09:24:02;96750.92;;;9.81;75.56
61359;BME280;47228;46.762;23.598;2024-02-26T09:26:30;96745.70;;;9.92;75.18
61359;BME280;47228;46.762;23.598;2024-02-26T09:28:58;96745.91;;;10.04;75.25
61359;BME280;47228;46.762;23.598;2024-02-26T09:31:26;96744.02;;;10.13;74.86
61359;BME280;47228;46.762;23.598;2024-02-26T09:33:54;96741.97;;;10.25;75.06
61359;BME280;47228;46.762;23.598;2024-02-26T09:36:26;96740.80;;;10.38;74.78
61359;BME280;47228;46.762;23.598;2024-02-26T09:38:55;96735.67;;;10.52;74.79
61359;BME280;47228;46.762;23.598;2024-02-26T09:41:30;96733.86;;;10.69;74.78
61359;BME280;47228;46.762;23.598;2024-02-26T09:44:00;96735.02;;;10.85;74.32
61359;BME280;47228;46.762;23.598;2024-02-26T09:46:30;96737.33;;;10.98;73.66
61359;BME280;47228;46.762;23.598;2024-02-26T09:48:59;96737.73;;;11.13;73.49
61359;BME280;47228;46.762;23.598;2024-02-26T09:51:28;96730.98;;;11.28;73.10
61359;BME280;47228;46.762;23.598;2024-02-26T09:53:59;96725.10;;;11.44;72.73
61359;BME280;47228;46.762;23.598;2024-02-26T09:56:37;96726.18;;;11.65;72.83
61359;BME280;47228;46.762;23.598;2024-02-26T09:59:22;96723.04;;;11.88;71.56
61359;BME280;47228;46.762;23.598;2024-02-26T10:01:51;96724.44;;;12.08;70.90
61359;BME280;47228;46.762;23.598;2024-02-26T10:04:21;96722.56;;;12.27;70.33
61359;BME280;47228;46.762;23.598;2024-02-26T10:06:51;96721.02;;;12.46;69.46
61359;BME280;47228;46.762;23.598;2024-02-26T10:09:20;96712.85;;;12.61;68.74
61359;BME280;47228;46.762;23.598;2024-02-26T10:11:49;96706.04;;;12.76;68.17
61359;BME280;47228;46.762;23.598;2024-02-26T10:14:18;96701.62;;;12.91;67.94
61359;BME280;47228;46.762;23.598;2024-02-26T10:16:46;96698.78;;;13.06;66.93
61359;BME280;47228;46.762;23.598;2024-02-26T10:19:28;96690.86;;;13.21;66.21
61359;BME280;47228;46.762;23.598;2024-02-26T10:21:58;96683.88;;;13.38;65.74
61359;BME280;47228;46.762;23.598;2024-02-26T10:24:27;96679.04;;;13.52;65.12
61359;BME280;47228;46.762;23.598;2024-02-26T10:26:56;96673.76;;;13.65;64.72
61359;BME280;47228;46.762;23.598;2024-02-26T10:29:25;96677.35;;;13.75;63.95
61359;BME280;47228;46.762;23.598;2024-02-26T10:31:59;96673.26;;;13.82;63.31
61359;BME280;47228;46.762;23.598;2024-02-26T10:34:28;96674.98;;;13.90;62.91
61359;BME280;47228;46.762;23.598;2024-02-26T10:36:56;96673.54;;;14.03;61.84
61359;BME280;47228;46.762;23.598;2024-02-26T10:39:24;96667.02;;;14.20;60.94
61359;BME280;47228;46.762;23.598;2024-02-26T10:41:52;96664.55;;;14.37;59.93
61359;BME280;47228;46.762;23.598;2024-02-26T10:44:21;96661.39;;;14.48;58.99
61359;BME280;47228;46.762;23.598;2024-02-26T10:46:49;96657.41;;;14.55;58.35
61359;BME280;47228;46.762;23.598;2024-02-26T10:49:19;96658.97;;;14.58;57.88
61359;BME280;47228;46.762;23.598;2024-02-26T10:51:55;96661.52;;;14.62;57.62
61359;BME280;47228;46.762;23.598;2024-02-26T10:54:29;96661.78;;;14.66;57.35
61359;BME280;47228;46.762;23.598;2024-02-26T10:56:58;96658.02;;;14.68;56.85
61359;BME280;47228;46.762;23.598;2024-02-26T10:59:27;96661.52;;;14.69;56.63
61359;BME280;47228;46.762;23.598;2024-02-26T11:01:56;96662.80;;;14.65;56.51
61359;BME280;47228;46.762;23.598;2024-02-26T11:04:29;96656.34;;;14.62;56.54
61359;BME280;47228;46.762;23.598;2024-02-26T11:06:58;96655.16;;;14.58;56.09
61359;BME280;47228;46.762;23.598;2024-02-26T11:09:27;96653.27;;;14.55;56.25
61359;BME280;47228;46.762;23.598;2024-02-26T11:11:57;96650.48;;;14.56;56.37
61359;BME280;47228;46.762;23.598;2024-02-26T11:14:26;96641.97;;;14.58;56.28
61359;BME280;47228;46.762;23.598;2024-02-26T11:16:55;96638.13;;;14.63;56.52
61359;BME280;47228;46.762;23.598;2024-02-26T11:19:24;96639.04;;;14.71;56.24
61359;BME280;47228;46.762;23.598;2024-02-26T11:21:52;96638.64;;;14.77;55.81
61359;BME280;47228;46.762;23.598;2024-02-26T11:24:21;96638.07;;;14.81;55.28
61359;BME280;47228;46.762;23.598;2024-02-26T11:26:52;96638.48;;;14.85;55.04
61359;BME280;47228;46.762;23.598;2024-02-26T11:29:43;96635.77;;;14.94;55.09
61359;BME280;47228;46.762;23.598;2024-02-26T11:32:12;96627.66;;;15.06;54.78
61359;BME280;47228;46.762;23.598;2024-02-26T11:34:41;96627.31;;;15.13;54.33
61359;BME280;47228;46.762;23.598;2024-02-26T11:37:14;96629.55;;;15.22;54.15
61359;BME280;47228;46.762;23.598;2024-02-26T11:39:45;96630.36;;;15.29;53.92
61359;BME280;47228;46.762;23.598;2024-02-26T11:42:15;96628.55;;;15.33;53.83
61359;BME280;47228;46.762;23.598;2024-02-26T11:44:44;96630.95;;;15.37;54.14
61359;BME280;47228;46.762;23.598;2024-02-26T11:49:48;96636.48;;;15.42;53.62
61359;BME280;47228;46.762;23.598;2024-02-26T11:52:17;96636.84;;;15.44;53.19
61359;BME280;47228;46.762;23.598;2024-02-26T11:54:52;96639.95;;;15.40;52.80
61359;BME280;47228;46.762;23.598;2024-02-26T12:00:13;96631.42;;;15.21;52.41
61359;BME280;47228;46.762;23.598;2024-02-26T12:02:52;96636.70;;;15.10;52.49
61359;BME280;47228;46.762;23.598;2024-02-26T12:05:32;96635.58;;;15.00;52.68
61359;BME280;47228;46.762;23.598;2024-02-26T12:08:03;96638.27;;;14.97;52.97
61359;BME280;47228;46.762;23.598;2024-02-26T12:10:37;96632.33;;;14.96;52.96
61359;BME280;47228;46.762;23.598;2024-02-26T12:13:07;96628.05;;;14.97;53.28
61359;BME280;47228;46.762;23.598;2024-02-26T12:15:38;96628.69;;;14.98;53.38
61359;BME280;47228;46.762;23.598;2024-02-26T12:18:08;96624.23;;;14.96;53.27
61359;BME280;47228;46.762;23.598;2024-02-26T12:20:38;96618.05;;;14.93;53.39
61359;BME280;47228;46.762;23.598;2024-02-26T12:23:06;96617.33;;;14.91;53.59
61359;BME280;47228;46.762;23.598;2024-02-26T12:25:35;96622.60;;;14.90;53.51
61359;BME280;47228;46.762;23.598;2024-02-26T12:28:03;96617.49;;;14.86;53.28
61359;BME280;47228;46.762;23.598;2024-02-26T12:30:31;96616.63;;;14.84;53.46
61359;BME280;47228;46.762;23.598;2024-02-26T12:33:00;96616.59;;;14.82;53.50
61359;BME280;47228;46.762;23.598;2024-02-26T12:35:29;96616.70;;;14.79;53.51
61359;BME280;47228;46.762;23.598;2024-02-26T12:38:00;96620.48;;;14.77;53.61
61359;BME280;47228;46.762;23.598;2024-02-26T12:40:29;96621.61;;;14.75;53.88
61359;BME280;47228;46.762;23.598;2024-02-26T12:42:57;96620.41;;;14.76;54.03
61359;BME280;47228;46.762;23.598;2024-02-26T12:45:26;96616.73;;;14.77;53.76
61359;BME280;47228;46.762;23.598;2024-02-26T12:47:56;96618.17;;;14.80;53.72
61359;BME280;47228;46.762;23.598;2024-02-26T12:50:25;96618.70;;;14.84;53.86
61359;BME280;47228;46.762;23.598;2024-02-26T12:52:53;96618.61;;;14.91;53.78
61359;BME280;47228;46.762;23.598;2024-02-26T12:55:21;96615.90;;;14.96;53.44
61359;BME280;47228;46.762;23.598;2024-02-26T12:57:50;96620.46;;;14.98;52.79
61359;BME280;47228;46.762;23.598;2024-02-26T13:00:22;96627.81;;;14.99;52.59
61359;BME280;47228;46.762;23.598;2024-02-26T13:02:53;96637.27;;;14.99;52.39
61359;BME280;47228;46.762;23.598;2024-02-26T13:05:23;96634.74;;;14.98;52.46
61359;BME280;47228;46.762;23.598;2024-02-26T13:07:53;96637.88;;;14.96;52.30
61359;BME280;47228;46.762;23.598;2024-02-26T13:10:21;96638.01;;;14.93;51.84
61359;BME280;47228;46.762;23.598;2024-02-26T13:12:49;96635.22;;;14.88;51.73